Time;durP1;ratioP1;P1;durP2;ratioP2;P2;SDS_P1;SDS_P2;PMS_P1;PMS_P2;Temp;Humidity;BMP_temperature;BMP_pressure;BME280_temperature;BME280_humidity;BME280_pressure;Samples;Min_cycle;Max_cycle;Signal;HPM_P1;HPM_P2
2023/10/21 00:01:47;;;;;;;7.93;4.33;;;13.20;99.90;;;;;;5080967;28;20697;-59
2023/10/21 00:04:17;;;;;;;8.43;4.57;;;13.20;99.90;;;;;;5082800;28;20222;-59
2023/10/21 00:06:45;;;;;;;10.40;4.33;;;13.20;99.90;;;;;;5081692;28;20327;-59
2023/10/21 00:09:13;;;;;;;9.73;4.70;;;13.20;99.90;;;;;;5082068;28;20347;-59
2023/10/21 00:11:42;;;;;;;9.23;4.50;;;13.20;99.90;;;;;;5064470;28;20219;-59
2023/10/21 00:14:10;;;;;;;7.27;5.07;;;13.20;99.90;;;;;;5082244;28;20300;-59
2023/10/21 00:16:38;;;;;;;6.70;4.73;;;13.20;99.90;;;;;;5083471;28;20191;-59
2023/10/21 00:19:06;;;;;;;7.10;5.27;;;13.30;99.90;;;;;;5078779;28;20188;-59
2023/10/21 00:21:36;;;;;;;11.40;5.13;;;13.30;99.90;;;;;;5077410;28;20223;-59
2023/10/21 00:24:04;;;;;;;6.87;4.10;;;13.30;99.90;;;;;;5064261;28;20216;-59
2023/10/21 00:26:44;;;;;;;7.53;4.20;;;13.30;99.90;;;;;;5081540;28;20692;-59
2023/10/21 00:29:12;;;;;;;7.67;4.43;;;13.40;99.90;;;;;;5091978;28;20231;-59
2023/10/21 00:31:41;;;;;;;8.50;4.67;;;13.50;99.90;;;;;;5081732;28;20211;-59
2023/10/21 00:34:09;;;;;;;6.20;4.47;;;13.40;99.90;;;;;;5080636;28;20215;-59
2023/10/21 00:36:39;;;;;;;10.60;4.70;;;13.50;99.90;;;;;;5079899;28;20577;-59
2023/10/21 00:39:10;;;;;;;9.43;4.00;;;13.50;99.90;;;;;;5082669;28;20216;-59
2023/10/21 00:41:39;;;;;;;6.10;4.17;;;13.50;99.90;;;;;;5081220;28;20225;-59
2023/10/21 00:44:08;;;;;;;9.00;4.17;;;13.50;99.90;;;;;;5078904;28;20681;-59
2023/10/21 00:46:37;;;;;;;8.00;4.57;;;13.50;99.90;;;;;;5080517;28;20188;-59
2023/10/21 00:49:05;;;;;;;6.80;4.07;;;13.60;99.90;;;;;;5083831;28;20286;-59
2023/10/21 00:51:35;;;;;;;12.13;4.40;;;13.60;99.90;;;;;;5076010;28;20227;-60
2023/10/21 00:54:06;;;;;;;6.60;3.97;;;13.60;99.90;;;;;;5064826;28;20262;-59
2023/10/21 00:56:36;;;;;;;7.33;3.90;;;13.70;99.90;;;;;;5080457;28;20223;-59
2023/10/21 00:59:05;;;;;;;8.83;4.07;;;13.60;99.90;;;;;;5082094;28;20219;-59
2023/10/21 01:01:35;;;;;;;7.87;4.50;;;13.70;99.90;;;;;;5081468;28;20228;-59
2023/10/21 01:04:05;;;;;;;7.27;4.20;;;13.60;99.90;;;;;;5079043;28;20208;-59
2023/10/21 01:06:33;;;;;;;6.00;4.10;;;13.60;99.90;;;;;;5082147;28;20211;-59
2023/10/21 01:09:01;;;;;;;9.70;4.10;;;13.60;99.90;;;;;;5067827;28;20232;-59
2023/10/21 01:11:31;;;;;;;8.53;4.27;;;13.50;99.90;;;;;;5064239;28;20238;-59
2023/10/21 01:14:00;;;;;;;8.07;4.13;;;13.50;99.90;;;;;;5064969;28;20898;-59
2023/10/21 01:16:29;;;;;;;7.37;4.07;;;13.50;99.90;;;;;;5062983;28;20548;-59
2023/10/21 01:18:57;;;;;;;7.97;4.07;;;13.40;99.90;;;;;;5058228;28;20636;-59
2023/10/21 01:21:25;;;;;;;10.07;4.50;;;13.40;99.90;;;;;;5060026;28;20222;-59
2023/10/21 01:23:55;;;;;;;8.97;4.23;;;13.40;99.90;;;;;;5059173;28;20222;-59
2023/10/21 01:26:23;;;;;;;9.90;4.87;;;13.40;99.90;;;;;;5061454;28;20235;-59
2023/10/21 01:28:51;;;;;;;8.90;4.47;;;13.40;99.90;;;;;;5062212;28;20220;-59
2023/10/21 01:31:19;;;;;;;11.20;4.27;;;13.40;99.90;;;;;;5064739;28;20185;-59
2023/10/21 01:33:47;;;;;;;8.60;4.30;;;13.40;99.90;;;;;;5079872;28;20215;-59
2023/10/21 01:36:17;;;;;;;8.60;4.50;;;13.30;99.90;;;;;;5076742;28;20336;-59
2023/10/21 01:38:45;;;;;;;7.13;4.37;;;13.30;99.90;;;;;;5076502;28;20220;-59
2023/10/21 01:41:15;;;;;;;7.57;4.40;;;13.30;99.90;;;;;;5082242;28;20232;-59
2023/10/21 01:43:43;;;;;;;12.37;4.63;;;13.30;99.90;;;;;;5084044;28;20231;-59
2023/10/21 01:46:11;;;;;;;9.10;4.23;;;13.30;99.90;;;;;;5067045;28;20200;-59
2023/10/21 01:48:40;;;;;;;7.87;4.50;;;13.20;99.90;;;;;;5081293;28;20223;-59
2023/10/21 01:51:09;;;;;;;8.80;4.20;;;13.20;99.90;;;;;;5078924;28;22526;-59
2023/10/21 01:53:38;;;;;;;9.33;4.77;;;13.30;99.90;;;;;;5083483;28;20310;-59
2023/10/21 01:56:06;;;;;;;15.27;4.20;;;13.20;99.90;;;;;;5083636;28;20241;-59
2023/10/21 01:58:36;;;;;;;8.93;4.33;;;13.20;99.90;;;;;;5086955;28;20213;-59
2023/10/21 02:01:11;;;;;;;9.33;4.47;;;13.20;99.90;;;;;;5078468;28;20582;-59
2023/10/21 02:03:41;;;;;;;5.93;4.03;;;13.10;99.90;;;;;;5084308;28;20231;-59
2023/10/21 02:06:10;;;;;;;8.87;4.27;;;13.20;99.90;;;;;;5079010;28;20212;-59
2023/10/21 02:08:38;;;;;;;12.33;4.43;;;13.20;99.90;;;;;;5082899;28;20230;-59
2023/10/21 02:11:08;;;;;;;7.90;5.17;;;13.20;99.90;;;;;;5084676;28;20300;-59
2023/10/21 02:13:37;;;;;;;11.37;4.50;;;13.20;99.90;;;;;;5084621;28;20196;-59
2023/10/21 02:16:10;;;;;;;7.23;4.50;;;13.20;99.90;;;;;;5084587;28;20639;-59
2023/10/21 02:18:38;;;;;;;9.20;4.50;;;13.20;99.90;;;;;;5085377;28;20251;-59
2023/10/21 02:21:07;;;;;;;10.40;4.67;;;13.20;99.90;;;;;;5081004;28;20227;-59
2023/10/21 02:23:36;;;;;;;12.53;4.73;;;13.20;99.90;;;;;;5079371;28;20222;-59
2023/10/21 02:26:06;;;;;;;11.33;4.90;;;13.20;99.90;;;;;;5064644;28;20220;-59
2023/10/21 02:28:35;;;;;;;11.53;5.13;;;13.20;99.90;;;;;;5083018;28;20199;-59
2023/10/21 02:31:04;;;;;;;16.40;5.63;;;13.20;99.90;;;;;;5080699;28;20291;-59
2023/10/21 02:33:33;;;;;;;9.80;5.30;;;13.20;99.90;;;;;;5080379;28;20629;-59
2023/10/21 02:36:02;;;;;;;13.97;6.20;;;13.30;99.90;;;;;;5087263;28;20234;-59
2023/10/21 02:38:30;;;;;;;7.63;5.40;;;13.40;99.90;;;;;;5083930;28;20272;-59
2023/10/21 02:40:58;;;;;;;17.00;5.87;;;13.50;99.90;;;;;;5078790;28;20566;-59
2023/10/21 02:43:27;;;;;;;12.87;5.97;;;13.50;99.90;;;;;;5081984;28;20241;-59
2023/10/21 02:45:55;;;;;;;12.63;6.17;;;13.50;99.90;;;;;;5083000;28;20644;-59
2023/10/21 02:48:25;;;;;;;11.47;6.00;;;13.60;99.90;;;;;;5084808;28;20221;-59
2023/10/21 02:50:53;;;;;;;15.67;6.40;;;13.60;99.90;;;;;;5081442;28;20736;-59
2023/10/21 02:53:22;;;;;;;11.97;5.83;;;13.60;99.90;;;;;;5080302;28;20641;-59
2023/10/21 02:55:50;;;;;;;13.80;6.00;;;13.70;99.90;;;;;;5081701;28;20848;-59
2023/10/21 02:58:18;;;;;;;10.87;5.90;;;13.70;99.90;;;;;;5081361;28;20649;-60
2023/10/21 03:00:49;;;;;;;10.87;5.40;;;13.80;99.90;;;;;;5084897;28;20843;-59
2023/10/21 03:03:17;;;;;;;9.90;5.17;;;13.80;99.90;;;;;;5065379;28;20689;-59
2023/10/21 03:05:47;;;;;;;7.53;4.93;;;13.80;99.90;;;;;;5065079;28;20262;-60
2023/10/21 03:08:15;;;;;;;7.53;5.10;;;13.80;99.90;;;;;;5061802;28;20571;-59
2023/10/21 03:10:43;;;;;;;7.50;4.67;;;13.90;99.90;;;;;;5065015;28;20586;-60
2023/10/21 03:13:11;;;;;;;11.47;5.00;;;13.90;99.90;;;;;;5062622;28;20202;-59
2023/10/21 03:15:40;;;;;;;8.60;4.37;;;13.90;99.90;;;;;;5066094;28;20233;-59
2023/10/21 03:18:08;;;;;;;7.93;4.60;;;13.90;99.90;;;;;;5065229;28;20216;-59
2023/10/21 03:20:36;;;;;;;5.30;3.93;;;14.00;99.90;;;;;;5063043;28;20270;-59
2023/10/21 03:23:06;;;;;;;11.60;4.80;;;14.00;99.90;;;;;;5063322;28;20248;-59
2023/10/21 03:25:34;;;;;;;9.83;4.47;;;14.00;99.90;;;;;;5061064;28;20192;-59
2023/10/21 03:28:03;;;;;;;6.20;4.23;;;14.00;99.90;;;;;;5062635;28;20200;-59
2023/10/21 03:30:31;;;;;;;6.40;4.53;;;14.00;99.90;;;;;;5063626;28;20231;-59
2023/10/21 03:32:59;;;;;;;9.00;3.90;;;14.00;99.90;;;;;;5046889;28;20567;-59
2023/10/21 03:35:28;;;;;;;9.07;4.13;;;14.00;99.90;;;;;;5059759;28;20224;-59
2023/10/21 03:37:56;;;;;;;6.23;3.80;;;14.00;99.90;;;;;;5070660;28;20230;-59
2023/10/21 03:40:28;;;;;;;11.03;3.73;;;14.00;99.90;;;;;;5080245;28;20676;-59
2023/10/21 03:42:56;;;;;;;10.93;4.23;;;14.10;99.90;;;;;;5066017;28;20206;-59
2023/10/21 03:45:25;;;;;;;8.90;4.00;;;14.10;99.90;;;;;;5063145;28;20219;-59
2023/10/21 03:47:53;;;;;;;15.03;4.10;;;14.10;99.90;;;;;;5060247;28;20228;-59
2023/10/21 03:50:21;;;;;;;8.80;4.20;;;14.10;99.90;;;;;;5063203;28;20590;-59
2023/10/21 03:52:49;;;;;;;9.70;3.90;;;14.10;99.90;;;;;;5063991;28;20314;-59
2023/10/21 03:55:18;;;;;;;11.67;3.97;;;14.10;99.90;;;;;;5079939;28;20204;-59
2023/10/21 03:57:49;;;;;;;7.27;4.07;;;14.10;99.90;;;;;;5083817;28;20227;-59
2023/10/21 04:00:18;;;;;;;7.83;3.60;;;14.20;99.90;;;;;;5081249;28;20258;-59
2023/10/21 04:02:47;;;;;;;10.23;3.60;;;14.20;99.90;;;;;;5074604;28;20587;-59
2023/10/21 04:05:17;;;;;;;5.93;4.07;;;14.20;99.90;;;;;;5079855;28;20298;-59
2023/10/21 04:07:46;;;;;;;4.90;3.90;;;14.20;99.90;;;;;;5077676;28;20272;-59
2023/10/21 04:10:14;;;;;;;20.53;4.73;;;14.20;99.90;;;;;;5083513;28;20185;-59
2023/10/21 04:12:42;;;;;;;8.93;3.63;;;14.20;99.90;;;;;;5079328;28;20211;-59
2023/10/21 04:15:12;;;;;;;6.87;3.93;;;14.20;99.90;;;;;;5079459;28;20884;-59
2023/10/21 04:17:41;;;;;;;10.03;4.07;;;14.20;99.90;;;;;;5080131;28;20277;-59
2023/10/21 04:20:10;;;;;;;14.47;4.37;;;14.20;99.90;;;;;;5080673;28;20220;-60
2023/10/21 04:22:38;;;;;;;9.63;4.37;;;14.20;99.90;;;;;;5079298;28;20188;-59
2023/10/21 04:25:08;;;;;;;9.70;4.13;;;14.20;99.90;;;;;;5081159;28;20685;-59
2023/10/21 04:27:36;;;;;;;9.30;3.50;;;14.20;99.90;;;;;;5076213;28;20222;-59
2023/10/21 04:30:05;;;;;;;7.83;4.13;;;14.10;99.90;;;;;;5079830;28;20256;-59
2023/10/21 04:32:36;;;;;;;8.07;3.70;;;14.20;99.90;;;;;;5076065;28;20581;-60
2023/10/21 04:35:05;;;;;;;9.27;3.73;;;14.20;99.90;;;;;;5080544;28;20215;-59
2023/10/21 04:37:32;;;;;;;10.80;3.90;;;14.30;99.90;;;;;;5080828;28;20280;-59
2023/10/21 04:40:00;;;;;;;10.90;4.00;;;14.30;99.90;;;;;;5079856;28;20196;-59
2023/10/21 04:42:28;;;;;;;13.37;4.13;;;14.30;99.90;;;;;;5078854;28;20559;-59
2023/10/21 04:44:56;;;;;;;9.10;3.67;;;14.30;99.90;;;;;;5077107;28;20216;-59
2023/10/21 04:47:25;;;;;;;8.77;3.80;;;14.30;99.90;;;;;;5081429;28;20563;-59
2023/10/21 04:49:55;;;;;;;9.57;3.63;;;14.30;99.90;;;;;;5080536;28;20301;-60
2023/10/21 04:52:23;;;;;;;8.33;4.17;;;14.20;99.90;;;;;;5081913;28;20195;-59
2023/10/21 04:54:52;;;;;;;8.57;4.53;;;14.20;99.90;;;;;;5079300;28;20195;-59
2023/10/21 04:57:20;;;;;;;8.23;4.67;;;14.20;99.90;;;;;;5079161;28;20215;-59
2023/10/21 04:59:49;;;;;;;7.30;4.40;;;14.10;99.90;;;;;;5080321;28;20305;-59
2023/10/21 05:02:17;;;;;;;6.23;3.90;;;14.10;99.90;;;;;;5075622;28;20665;-59
2023/10/21 05:04:45;;;;;;;4.93;3.30;;;14.10;99.90;;;;;;5076718;28;20589;-59
2023/10/21 05:07:15;;;;;;;4.87;3.00;;;14.00;99.90;;;;;;5082115;28;20188;-59
2023/10/21 05:09:43;;;;;;;5.13;2.77;;;14.00;99.90;;;;;;5080544;28;20222;-59
2023/10/21 05:12:11;;;;;;;3.40;3.10;;;14.00;99.90;;;;;;5083273;28;20864;-59
2023/10/21 05:14:39;;;;;;;4.87;2.57;;;14.00;99.90;;;;;;5075221;28;20227;-59
2023/10/21 05:17:07;;;;;;;5.33;2.83;;;14.00;99.90;;;;;;5083634;28;20228;-59
2023/10/21 05:19:35;;;;;;;4.50;2.70;;;14.00;99.90;;;;;;5071756;28;20198;-59
2023/10/21 05:22:04;;;;;;;6.03;2.90;;;14.00;99.90;;;;;;5080603;28;20196;-59
2023/10/21 05:24:34;;;;;;;4.80;2.87;;;14.00;99.90;;;;;;5084670;28;20227;-59
2023/10/21 05:27:02;;;;;;;4.13;2.90;;;13.90;99.90;;;;;;5082644;28;20215;-59
2023/10/21 05:29:30;;;;;;;3.13;2.50;;;13.90;99.90;;;;;;5081743;28;20215;-59
2023/10/21 05:31:59;;;;;;;3.70;1.87;;;13.90;99.90;;;;;;5081374;28;20212;-60
2023/10/21 05:34:27;;;;;;;2.80;1.80;;;13.80;99.90;;;;;;5065840;28;20192;-59
2023/10/21 05:36:55;;;;;;;2.00;1.50;;;13.80;99.90;;;;;;5085531;28;20207;-59
2023/10/21 05:39:24;;;;;;;1.77;1.30;;;13.70;99.90;;;;;;5085490;28;20219;-59
2023/10/21 05:41:54;;;;;;;1.20;1.17;;;13.70;99.90;;;;;;5081849;28;20222;-59
2023/10/21 05:44:22;;;;;;;1.20;1.10;;;13.60;99.90;;;;;;5085095;28;20219;-59
2023/10/21 05:47:10;;;;;;;1.53;1.10;;;13.60;99.90;;;;;;5085373;28;20632;-59
2023/10/21 05:49:38;;;;;;;1.57;1.20;;;13.50;99.90;;;;;;5081976;28;20311;-59
2023/10/21 05:52:07;;;;;;;2.47;1.00;;;13.50;99.90;;;;;;5084266;28;20195;-59
2023/10/21 05:54:35;;;;;;;1.07;1.07;;;13.50;99.90;;;;;;5078867;28;20226;-59
2023/10/21 05:57:05;;;;;;;1.60;1.17;;;13.50;99.90;;;;;;5083943;28;20219;-59
2023/10/21 05:59:33;;;;;;;1.30;1.20;;;13.50;99.90;;;;;;5074521;28;20737;-59
2023/10/21 06:02:01;;;;;;;4.30;1.50;;;13.40;99.90;;;;;;5080335;28;21522;-61
2023/10/21 06:04:31;;;;;;;1.40;1.30;;;13.40;99.90;;;;;;5080354;28;20215;-58
2023/10/21 06:07:01;;;;;;;1.33;1.20;;;13.30;99.90;;;;;;5080137;28;20199;-59
2023/10/21 06:09:30;;;;;;;1.30;1.27;;;13.30;99.90;;;;;;5084147;28;20216;-60
2023/10/21 06:11:59;;;;;;;2.13;1.10;;;13.30;99.90;;;;;;5081205;28;20219;-59
2023/10/21 06:14:29;;;;;;;1.83;1.10;;;13.30;99.90;;;;;;5080292;28;20211;-59
2023/10/21 06:16:58;;;;;;;2.03;1.10;;;13.30;99.90;;;;;;5085783;28;20219;-59
2023/10/21 06:19:27;;;;;;;1.33;1.00;;;13.30;99.90;;;;;;5080708;28;20603;-59
2023/10/21 06:21:55;;;;;;;1.90;1.00;;;13.20;99.90;;;;;;5084295;28;20290;-59
2023/10/21 06:24:23;;;;;;;2.50;1.00;;;13.20;99.90;;;;;;5085273;28;20242;-59
2023/10/21 06:26:52;;;;;;;0.90;0.90;;;13.10;99.90;;;;;;5082250;28;20298;-60
2023/10/21 06:29:23;;;;;;;2.53;0.87;;;13.20;99.90;;;;;;5080866;28;20276;-59
2023/10/21 06:31:52;;;;;;;1.13;1.03;;;13.20;99.90;;;;;;5082461;28;20227;-59
2023/10/21 06:34:20;;;;;;;4.53;1.53;;;13.20;99.90;;;;;;5078230;28;20725;-59
2023/10/21 06:36:48;;;;;;;1.27;1.20;;;13.10;99.90;;;;;;5080025;28;20228;-60
2023/10/21 06:39:18;;;;;;;1.20;1.10;;;13.10;99.90;;;;;;5083893;28;20227;-59
2023/10/21 06:41:46;;;;;;;2.13;1.00;;;13.10;99.90;;;;;;5083488;28;20266;-59
2023/10/21 06:44:16;;;;;;;2.17;1.13;;;13.10;99.90;;;;;;5084436;28;20554;-59
2023/10/21 06:46:44;;;;;;;1.87;1.30;;;13.10;99.90;;;;;;5081787;28;20215;-59
2023/10/21 06:49:14;;;;;;;2.97;1.40;;;13.20;99.90;;;;;;5082830;28;20201;-59
2023/10/21 06:51:42;;;;;;;3.20;1.27;;;13.20;99.90;;;;;;5084066;28;20219;-60
2023/10/21 06:54:11;;;;;;;1.20;1.10;;;13.20;99.90;;;;;;5080451;28;20225;-60
2023/10/21 06:56:39;;;;;;;1.83;1.10;;;13.20;99.90;;;;;;5083273;28;20330;-60
2023/10/21 06:59:07;;;;;;;2.50;1.03;;;13.30;99.90;;;;;;5079436;28;20230;-59
2023/10/21 07:01:35;;;;;;;1.43;1.10;;;13.30;99.90;;;;;;5081703;28;20229;-60
2023/10/21 07:04:04;;;;;;;2.07;0.93;;;13.30;99.90;;;;;;5060462;28;20224;-60
2023/10/21 07:06:34;;;;;;;6.33;1.03;;;13.30;99.90;;;;;;5064671;28;20223;-60
2023/10/21 07:09:02;;;;;;;3.80;1.00;;;13.30;99.90;;;;;;5063524;28;20223;-60
2023/10/21 07:11:30;;;;;;;2.90;0.90;;;13.40;99.90;;;;;;5063852;28;20674;-60
2023/10/21 07:13:59;;;;;;;0.97;0.80;;;13.40;99.90;;;;;;5065087;28;20223;-60
2023/10/21 07:16:27;;;;;;;0.77;0.77;;;13.40;99.90;;;;;;5069711;28;20576;-59
2023/10/21 07:18:57;;;;;;;5.10;1.07;;;13.40;99.90;;;;;;5065205;28;20665;-60
2023/10/21 07:21:25;;;;;;;1.27;0.90;;;13.40;99.90;;;;;;5067321;28;20307;-60
2023/10/21 07:23:55;;;;;;;1.40;0.97;;;13.50;99.90;;;;;;5075841;28;20313;-60
2023/10/21 07:26:23;;;;;;;3.93;1.40;;;13.50;99.90;;;;;;5081295;28;20728;-60
2023/10/21 07:28:51;;;;;;;3.03;1.00;;;13.50;99.90;;;;;;5079992;28;20314;-60
2023/10/21 07:31:20;;;;;;;2.07;1.00;;;13.50;99.90;;;;;;5082645;28;20599;-60
2023/10/21 07:33:50;;;;;;;1.83;1.10;;;13.50;99.90;;;;;;5078787;28;20223;-60
2023/10/21 07:36:19;;;;;;;1.40;0.97;;;13.50;99.90;;;;;;5081088;28;20216;-60
2023/10/21 07:38:47;;;;;;;1.20;1.10;;;13.50;99.90;;;;;;5081094;28;20305;-60
2023/10/21 07:41:17;;;;;;;1.93;1.00;;;13.60;99.90;;;;;;5081694;28;20225;-60
2023/10/21 07:43:45;;;;;;;0.87;0.80;;;13.60;99.90;;;;;;5082806;28;20755;-59
2023/10/21 07:46:14;;;;;;;3.20;1.10;;;13.60;99.90;;;;;;5087887;28;20187;-60
2023/10/21 07:48:42;;;;;;;6.20;1.40;;;13.80;99.90;;;;;;5066418;28;20224;-60
2023/10/21 07:51:10;;;;;;;1.63;1.10;;;13.80;99.90;;;;;;5066754;28;20266;-60
2023/10/21 07:53:38;;;;;;;3.00;1.30;;;13.80;99.90;;;;;;5067036;28;20957;-60
2023/10/21 07:56:11;;;;;;;3.80;1.17;;;13.70;99.90;;;;;;5067274;28;20616;-60
2023/10/21 07:58:42;;;;;;;2.63;1.20;;;13.70;99.90;;;;;;5065197;28;20205;-60
2023/10/21 08:01:11;;;;;;;2.30;1.03;;;13.70;99.90;;;;;;5067681;28;20268;-60
2023/10/21 08:03:39;;;;;;;2.70;1.50;;;13.80;99.90;;;;;;5064967;28;20219;-61
2023/10/21 08:06:14;;;;;;;5.57;1.20;;;13.80;99.90;;;;;;5071404;28;20247;-60
2023/10/21 08:08:43;;;;;;;4.33;1.20;;;13.80;99.90;;;;;;5080518;28;20570;-60
2023/10/21 08:11:11;;;;;;;2.93;1.03;;;13.70;99.90;;;;;;5080341;28;20215;-60
2023/10/21 08:13:41;;;;;;;5.20;1.13;;;13.70;99.90;;;;;;5080353;28;20283;-59
2023/10/21 08:16:12;;;;;;;2.97;1.10;;;13.70;99.90;;;;;;5060564;28;20682;-61
2023/10/21 08:18:40;;;;;;;5.30;1.73;;;13.70;99.90;;;;;;5082636;28;20253;-60
2023/10/21 08:21:08;;;;;;;4.60;1.57;;;13.70;99.90;;;;;;5076738;28;20223;-60
2023/10/21 08:23:37;;;;;;;3.90;1.17;;;13.80;99.90;;;;;;5081075;28;20226;-60
2023/10/21 08:26:05;;;;;;;3.67;1.47;;;13.80;97.30;;;;;;5081460;28;20323;-60
2023/10/21 08:28:33;;;;;;;5.40;1.43;;;13.80;99.90;;;;;;5080555;28;20191;-60
2023/10/21 08:31:03;;;;;;;2.80;1.50;;;13.90;99.50;;;;;;5047953;28;20196;-60
2023/10/21 08:33:31;;;;;;;2.13;1.00;;;13.90;94.20;;;;;;5063824;28;20223;-61
2023/10/21 08:35:59;;;;;;;5.87;1.40;;;13.90;92.80;;;;;;5065523;28;20217;-60
2023/10/21 08:38:28;;;;;;;5.57;1.50;;;13.90;97.50;;;;;;5049721;28;20318;-60
2023/10/21 08:40:56;;;;;;;5.97;1.60;;;13.90;98.40;;;;;;5060228;28;20606;-60
2023/10/21 08:43:27;;;;;;;5.17;1.63;;;13.90;92.00;;;;;;5062870;28;20831;-62
2023/10/21 08:45:56;;;;;;;1.63;1.20;;;13.90;91.60;;;;;;5061970;28;20196;-61
2023/10/21 08:48:27;;;;;;;1.60;1.23;;;14.10;93.30;;;;;;5066594;28;20213;-61
2023/10/21 08:50:56;;;;;;;1.27;0.93;;;14.20;94.10;;;;;;5070602;28;20230;-61
2023/10/21 08:53:28;;;;;;;5.07;1.40;;;14.20;84.30;;;;;;5078034;28;20596;-60
2023/10/21 08:56:00;;;;;;;6.37;1.47;;;14.30;76.90;;;;;;5079568;28;20214;-61
2023/10/21 08:58:29;;;;;;;2.63;1.40;;;14.30;72.00;;;;;;5079960;28;20308;-59
2023/10/21 09:00:57;;;;;;;3.13;1.27;;;14.20;61.00;;;;;;5079037;28;20202;-62
2023/10/21 09:03:27;;;;;;;5.00;1.30;;;14.30;83.80;;;;;;5077696;28;20569;-62
2023/10/21 09:06:11;;;;;;;4.70;1.30;;;14.30;75.00;;;;;;5073791;28;20260;-60
2023/10/21 09:08:41;;;;;;;7.27;1.30;;;14.40;62.40;;;;;;5078854;28;20274;-61
2023/10/21 09:11:10;;;;;;;3.43;1.43;;;14.50;66.00;;;;;;5075117;28;20696;-61
2023/10/21 09:13:40;;;;;;;4.23;1.60;;;14.60;54.60;;;;;;5079904;28;20183;-61
2023/10/21 09:16:20;;;;;;;4.77;1.83;;;14.60;53.70;;;;;;5080649;28;20241;-61
2023/10/21 09:19:01;;;;;;;6.10;1.80;;;14.50;54.10;;;;;;5083250;28;20239;-61
2023/10/21 09:21:42;;;;;;;8.63;1.40;;;14.40;57.70;;;;;;5078452;28;20699;-61
2023/10/21 09:24:12;;;;;;;5.57;1.40;;;14.50;52.30;;;;;;5079019;28;20231;-61
2023/10/21 09:26:42;;;;;;;4.93;1.50;;;14.60;57.00;;;;;;5063755;28;20686;-61
2023/10/21 09:29:12;;;;;;;5.30;1.40;;;14.70;56.20;;;;;;5077047;28;20216;-61
2023/10/21 09:31:47;;;;;;;4.80;1.37;;;14.80;42.10;;;;;;5067089;28;20521;-60
2023/10/21 09:34:27;;;;;;;5.23;1.60;;;14.80;48.50;;;;;;5064925;28;20308;-61
2023/10/21 09:36:56;;;;;;;7.73;1.70;;;14.70;41.20;;;;;;5078669;28;20212;-61
2023/10/21 09:39:27;;;;;;;8.07;1.83;;;14.80;54.50;;;;;;5080621;28;20273;-62
2023/10/21 09:41:55;;;;;;;12.23;1.90;;;15.00;31.20;;;;;;5077954;28;20217;-61
2023/10/21 09:44:25;;;;;;;7.03;1.73;;;15.10;38.50;;;;;;5089848;28;20243;-62
2023/10/21 09:46:59;;;;;;;4.67;1.77;;;15.10;26.90;;;;;;5080836;28;20224;-61
2023/10/21 09:49:32;;;;;;;4.07;1.47;;;15.10;39.30;;;;;;5078366;28;20241;-60
2023/10/21 09:52:04;;;;;;;6.27;1.83;;;15.20;35.80;;;;;;5080985;28;20187;-61
2023/10/21 09:54:41;;;;;;;6.10;1.70;;;15.40;40.20;;;;;;5081727;28;20218;-61
2023/10/21 09:57:11;;;;;;;8.77;1.60;;;15.50;15.90;;;;;;5078169;28;20214;-61
2023/10/21 09:59:40;;;;;;;10.20;2.33;;;15.40;16.20;;;;;;5077405;28;20215;-62
2023/10/21 10:02:12;;;;;;;9.13;2.17;;;15.40;28.30;;;;;;5082034;28;20229;-61
2023/10/21 10:04:42;;;;;;;9.03;2.07;;;15.10;25.90;;;;;;5082573;28;20250;-60
2023/10/21 10:07:12;;;;;;;8.80;2.07;;;15.00;33.80;;;;;;5078648;28;21055;-61
2023/10/21 10:10:03;;;;;;;8.77;2.50;;;14.90;41.60;;;;;;5083061;28;20623;-62
2023/10/21 10:12:36;;;;;;;8.10;1.80;;;14.90;38.80;;;;;;5082601;28;20699;-61
2023/10/21 10:15:35;;;;;;;8.83;1.90;;;14.80;43.60;;;;;;5068327;28;20658;-62
2023/10/21 10:18:05;;;;;;;10.93;2.00;;;14.80;42.90;;;;;;5082334;28;20251;-62
2023/10/21 10:20:44;;;;;;;6.67;2.17;;;15.00;41.00;;;;;;5082788;28;20778;-61
2023/10/21 10:23:13;;;;;;;4.77;2.00;;;15.10;29.10;;;;;;5082572;28;20212;-61
2023/10/21 10:25:44;;;;;;;6.37;2.00;;;15.20;33.30;;;;;;5083128;28;20260;-61
2023/10/21 10:28:17;;;;;;;12.23;2.10;;;15.30;22.70;;;;;;5082361;28;20189;-61
2023/10/21 10:30:49;;;;;;;12.00;1.80;;;15.20;13.40;;;;;;5080211;28;20228;-62
2023/10/21 10:33:22;;;;;;;7.43;1.93;;;15.20;14.60;;;;;;5080463;28;20227;-62
2023/10/21 10:35:53;;;;;;;9.27;1.93;;;15.10;13.10;;;;;;5082998;28;20246;-61
2023/10/21 10:38:25;;;;;;;10.43;2.00;;;15.20;12.40;;;;;;5084274;28;20223;-61
2023/10/21 10:41:02;;;;;;;7.13;2.00;;;15.30;1.00;;;;;;5084192;28;20224;-61
2023/10/21 10:43:30;;;;;;;6.57;2.13;;;15.40;11.00;;;;;;5065518;28;20205;-60
2023/10/21 10:45:58;;;;;;;9.03;2.77;;;15.20;10.20;;;;;;5082395;28;20263;-61
2023/10/21 10:48:29;;;;;;;9.63;1.93;;;15.10;11.70;;;;;;5079385;28;20223;-61
2023/10/21 10:51:10;;;;;;;11.47;2.27;;;15.00;20.20;;;;;;5080197;28;20220;-61
2023/10/21 10:53:39;;;;;;;8.40;2.10;;;14.90;26.90;;;;;;5083901;28;20208;-62
2023/10/21 10:56:09;;;;;;;10.03;2.10;;;14.80;21.70;;;;;;5068953;28;20239;-60
2023/10/21 10:58:38;;;;;;;9.97;2.03;;;15.00;24.10;;;;;;5085958;28;20201;-59
2023/10/21 11:01:07;;;;;;;6.03;2.00;;;15.10;13.80;;;;;;5082807;28;20309;-60
2023/10/21 11:03:36;;;;;;;10.53;2.33;;;15.20;6.20;;;;;;5078964;28;20710;-61
2023/10/21 11:06:06;;;;;;;5.97;2.53;;;15.20;18.90;;;;;;5083272;28;20224;-61
2023/10/21 11:08:38;;;;;;;10.50;1.90;;;15.30;10.70;;;;;;5078482;28;20248;-61
2023/10/21 11:11:10;;;;;;;5.90;2.07;;;15.30;9.10;;;;;;5080976;28;20221;-60
2023/10/21 11:13:39;;;;;;;6.07;1.90;;;15.30;15.00;;;;;;5078308;28;20677;-60
2023/10/21 11:16:07;;;;;;;8.97;2.63;;;15.30;15.00;;;;;;5072868;28;20200;-60
2023/10/21 11:18:36;;;;;;;6.03;2.07;;;15.20;43.00;;;;;;5079515;28;20319;-61
2023/10/21 11:21:07;;;;;;;10.57;2.30;;;15.20;27.70;;;;;;5075423;28;20759;-61
2023/10/21 11:23:36;;;;;;;9.90;1.90;;;15.20;43.50;;;;;;5078878;28;20317;-61
2023/10/21 11:26:07;;;;;;;8.50;2.37;;;15.10;43.20;;;;;;5079570;28;20239;-61
2023/10/21 11:28:39;;;;;;;13.13;2.60;;;15.10;28.80;;;;;;5079340;28;20559;-60
2023/10/21 11:31:09;;;;;;;7.10;1.87;;;15.10;55.90;;;;;;5080233;28;20196;-62
2023/10/21 11:33:37;;;;;;;12.33;2.83;;;15.00;39.00;;;;;;5081685;28;20226;-61
2023/10/21 11:36:08;;;;;;;8.47;2.17;;;14.90;53.50;;;;;;5077858;28;20705;-61
2023/10/21 11:38:37;;;;;;;8.77;2.70;;;15.00;50.60;;;;;;5077552;28;20220;-61
2023/10/21 11:41:12;;;;;;;10.20;2.33;;;15.00;64.70;;;;;;5063076;28;20220;-61
2023/10/21 11:43:45;;;;;;;10.50;2.00;;;14.90;59.30;;;;;;5077965;28;20183;-62
2023/10/21 11:46:13;;;;;;;16.03;2.73;;;14.90;67.50;;;;;;5079799;28;20189;-61
2023/10/21 11:48:41;;;;;;;17.10;2.50;;;14.80;90.60;;;;;;5077311;28;20224;-61
2023/10/21 11:51:11;;;;;;;11.93;2.23;;;14.60;72.40;;;;;;5080238;28;20223;-61
2023/10/21 11:53:40;;;;;;;11.67;2.40;;;14.50;96.60;;;;;;5078717;28;20270;-61
2023/10/21 12:13:40;;;;;;;17.73;3.00;;;14.20;92.70;;;;;;5035215;28;20309;-59
2023/10/21 12:16:30;;;;;;;18.37;3.37;;;14.20;95.90;;;;;;5074445;28;20931;-61
2023/10/21 12:19:43;;;;;;;9.50;2.10;;;14.20;90.50;;;;;;5076761;28;20549;-61
2023/10/21 12:25:43;;;;;;;9.73;2.10;;;14.20;92.50;;;;;;5081823;28;20211;-61
2023/10/21 12:36:42;;;;;;;11.90;2.40;;;14.20;94.70;;;;;;5075675;28;20219;-60
2023/10/21 12:41:57;;;;;;;9.93;2.57;;;14.40;69.20;;;;;;5073838;28;20262;-60
2023/10/21 12:44:26;;;;;;;13.77;2.30;;;14.50;76.60;;;;;;5077016;28;20220;-61
2023/10/21 12:46:57;;;;;;;16.50;2.57;;;14.50;69.80;;;;;;5080655;28;20269;-60
2023/10/21 12:49:27;;;;;;;10.77;2.50;;;14.50;81.40;;;;;;5078393;28;20225;-59
2023/10/21 12:51:58;;;;;;;8.47;2.00;;;14.40;86.60;;;;;;5076946;28;20198;-60
2023/10/21 12:54:30;;;;;;;12.30;2.50;;;14.40;98.00;;;;;;5076335;28;20775;-60
2023/10/21 12:57:00;;;;;;;11.80;3.00;;;14.30;97.50;;;;;;5081300;28;20223;-60
2023/10/21 12:59:29;;;;;;;11.23;2.37;;;14.20;99.90;;;;;;5073672;28;20223;-60
2023/10/21 13:01:57;;;;;;;7.43;2.20;;;14.00;99.90;;;;;;5077758;28;20222;-60
2023/10/21 13:04:25;;;;;;;13.20;2.93;;;13.90;99.90;;;;;;5064631;28;20526;-60
2023/10/21 13:06:54;;;;;;;12.13;2.70;;;13.90;99.90;;;;;;5077832;28;20222;-60
2023/10/21 13:09:23;;;;;;;11.97;2.77;;;13.90;99.90;;;;;;5075112;28;20244;-60
2023/10/21 13:11:52;;;;;;;9.00;2.57;;;13.90;99.90;;;;;;5071277;28;21670;-60
2023/10/21 13:14:23;;;;;;;12.43;2.60;;;13.90;99.90;;;;;;5076750;28;20219;-60
2023/10/21 13:16:53;;;;;;;10.60;2.20;;;13.90;99.90;;;;;;5077418;28;20619;-60
2023/10/21 13:19:21;;;;;;;9.73;2.40;;;13.90;99.90;;;;;;5074892;28;20558;-60
2023/10/21 13:21:54;;;;;;;9.63;2.33;;;13.90;99.90;;;;;;5077797;28;20222;-60
2023/10/21 13:24:22;;;;;;;14.97;2.50;;;13.90;99.90;;;;;;5076468;28;20227;-60
2023/10/21 13:26:51;;;;;;;8.97;2.73;;;13.90;99.90;;;;;;5078613;28;20207;-60
2023/10/21 13:29:21;;;;;;;11.20;2.30;;;13.90;99.90;;;;;;5077823;28;20574;-60
2023/10/21 13:31:50;;;;;;;10.03;2.40;;;13.90;99.90;;;;;;5077475;28;20277;-60